Munden, KS

3:43 PM CST on December 19, 2014 (GMT -0600)
Hebron Municipal | Change Station
CLOSE
Current Station
Airport
Location: Hebron,
Elevation: 1467 ft
Nearby Weather Stations

Elev 1467 ft 40.15 °N, 97.59 °W | Updated 8 minutes ago

Overcast
Overcast
33 °F
Feels Like 27 °F
N
7
Wind Variable Wind from South

Today
High -- | Low -- °F
--% Chance of Precip.
Yesterday
High -- | Low -- °F
Precip. -- in
7:47 AM 5:07 PM
Waning Crescent, 6% visible
Pressure 30.12 in
Visibility 5.0 miles
Clouds Scattered Clouds 900 ft
Overcast 1700 ft
Windchill 27 °F
Dew Point 30 °F
Humidity 87%
Rainfall 0.00 in
Snow Depth Not available.
UV 0 out of 12
Pollen .10 out of 12
Air Quality Not available.
Flu Activity Not available.
METAR KHJH 192135Z AUTO 17006KT 5SM BR SCT009 OVC017 01/M01 A3012 RMK AO2 T00081011

More Conditions Fewer Conditions

Pressure 30.12 in
Visibility 5.0 miles
Clouds Scattered Clouds 900 ft
Overcast 1700 ft
Windchill 27 °F
Dew Point 30 °F
Humidity 87%
Rainfall 0.00 in
Snow Depth Not available.
UV 0 out of 12
Pollen .10 out of 12
Air Quality Not available.
Flu Activity Not available.
METAR KHJH 192135Z AUTO 17006KT 5SM BR SCT009 OVC017 01/M01 A3012 RMK AO2 T00081011

More Conditions Fewer Conditions

10-Day Weather Forecast

Almanac

Astronomy

Dec. 19, 2014 Rise Set
Actual Time
Civil Twilight
Nautical Twilight
Astronomical Twilight
Moon
Length of Visible Light
Length of Day
Tomorrow will be .
, % of the Moon is Illuminated

Today's Extremes

State Highs State Lows

Community

WunderPhotos

Upload Photos

1,779,060 photos uploaded!

WunderBlogs® & News

Nearby

Air Quality

  Air Quality AQ Index Pollutant
Not available.

Snow Depth

Station Depth Elevation

Earthquake Activity

City Distance Mag. Time & Date
Minimum magnitude displayed is 2.5.

Coastal Water Temperatures

Place Temperature

Nearby Weather Stations